createdAt,value
2018-07-25T00:01:44.836Z,100604.44
2018-07-25T00:04:12.014Z,100600.80
2018-07-25T00:06:39.162Z,100603.60
2018-07-25T00:09:07.314Z,100600.55
2018-07-25T00:11:34.476Z,100603.94
2018-07-25T00:14:01.630Z,100596.58
2018-07-25T00:16:28.812Z,100598.10
2018-07-25T00:18:55.933Z,100600.63
2018-07-25T00:21:23.095Z,100601.64
2018-07-25T00:23:50.813Z,100603.59
2018-07-25T00:26:18.001Z,100601.06
2018-07-25T00:28:45.138Z,100600.05
2018-07-25T00:31:12.315Z,100603.41
2018-07-25T00:33:39.471Z,100600.02
2018-07-25T00:36:06.745Z,100599.00
2018-07-25T00:38:33.977Z,100592.58
2018-07-25T00:41:01.171Z,100594.48
2018-07-25T00:43:28.390Z,100593.41
2018-07-25T00:45:55.547Z,100601.17
2018-07-25T00:48:22.699Z,100605.12
2018-07-25T00:50:49.867Z,100608.52
2018-07-25T00:53:17.163Z,100602.81
2018-07-25T00:55:44.727Z,100602.91
2018-07-25T00:58:11.552Z,100599.84
2018-07-25T01:00:38.717Z,100596.23
2018-07-25T01:03:05.904Z,100597.58
2018-07-25T01:05:33.096Z,100596.09
2018-07-25T01:08:00.276Z,100598.97
2018-07-25T01:10:27.460Z,100586.08
2018-07-25T01:12:54.642Z,100598.24
2018-07-25T01:15:21.799Z,100600.77
2018-07-25T01:17:48.978Z,100598.09
2018-07-25T01:20:16.137Z,100600.50
2018-07-25T01:22:43.312Z,100608.26
2018-07-25T01:25:10.461Z,100606.68
2018-07-25T01:27:37.600Z,100614.02
2018-07-25T01:30:04.770Z,100604.73
2018-07-25T01:32:31.899Z,100609.67
2018-07-25T01:34:59.076Z,100608.71
2018-07-25T01:37:26.227Z,100604.71
2018-07-25T01:39:53.382Z,100611.53
2018-07-25T01:42:20.527Z,100605.08
2018-07-25T01:44:48.025Z,100607.74
2018-07-25T01:47:15.239Z,100609.44
2018-07-25T01:49:42.530Z,100608.97
2018-07-25T01:52:09.681Z,100612.72
2018-07-25T01:54:36.920Z,100613.99
2018-07-25T01:57:04.395Z,100610.53
2018-07-25T01:59:31.603Z,100618.38
2018-07-25T02:01:59.388Z,100620.95
2018-07-25T02:04:26.883Z,100607.63
2018-07-25T02:06:54.059Z,100613.85
2018-07-25T02:09:21.227Z,100615.63
2018-07-25T02:11:48.373Z,100618.39
2018-07-25T02:14:15.539Z,100610.69
2018-07-25T02:16:42.697Z,100615.30
2018-07-25T02:19:09.829Z,100622.33
2018-07-25T02:21:37.073Z,100619.03
2018-07-25T02:24:04.331Z,100626.23
2018-07-25T02:26:31.511Z,100633.09
2018-07-25T02:28:59.192Z,100631.16
2018-07-25T02:31:26.516Z,100629.30
2018-07-25T02:33:59.317Z,100632.56
2018-07-25T02:36:26.524Z,100633.30
2018-07-25T02:38:53.674Z,100631.77
2018-07-25T02:41:20.899Z,100633.72
2018-07-25T02:43:48.139Z,100635.19
2018-07-25T02:46:15.280Z,100636.22
2018-07-25T02:48:42.426Z,100639.28
2018-07-25T02:51:09.592Z,100641.08
2018-07-25T02:53:36.742Z,100638.88
2018-07-25T02:56:04.516Z,100638.56
2018-07-25T02:58:31.686Z,100645.97
2018-07-25T03:00:58.836Z,100647.20
2018-07-25T03:03:26.013Z,100648.98
2018-07-25T03:05:53.220Z,100655.27
2018-07-25T03:08:20.449Z,100654.47
2018-07-25T03:10:54.649Z,100657.96
2018-07-25T03:13:22.508Z,100662.38
2018-07-25T03:15:58.862Z,100668.27
2018-07-25T03:18:26.120Z,100668.50
2018-07-25T03:20:53.299Z,100667.17
2018-07-25T03:23:20.475Z,100666.12
2018-07-25T03:25:47.809Z,100669.84
2018-07-25T03:28:15.003Z,100667.41
2018-07-25T03:30:42.712Z,100669.77
2018-07-25T03:33:09.883Z,100673.47
2018-07-25T03:35:37.047Z,100666.72
2018-07-25T03:38:04.182Z,100667.18
2018-07-25T03:40:31.381Z,100668.88
2018-07-25T03:42:58.546Z,100676.31
2018-07-25T03:45:25.704Z,100670.44
2018-07-25T03:47:52.867Z,100674.63
2018-07-25T03:50:20.097Z,100671.42
2018-07-25T03:52:47.239Z,100677.89
2018-07-25T03:55:15.076Z,100676.38
2018-07-25T03:57:42.274Z,100676.28
2018-07-25T04:00:09.439Z,100678.81
2018-07-25T04:02:36.592Z,100675.04
2018-07-25T04:05:03.802Z,100684.27
2018-07-25T04:07:30.975Z,100691.98
2018-07-25T04:09:58.121Z,100693.69
2018-07-25T04:12:25.269Z,100695.21
2018-07-25T04:14:52.438Z,100692.55
2018-07-25T04:17:19.623Z,100698.66
2018-07-25T04:19:46.818Z,100694.84
2018-07-25T04:22:14.003Z,100690.84
2018-07-25T04:24:41.173Z,100692.73
2018-07-25T04:27:08.339Z,100694.43
2018-07-25T04:29:35.515Z,100696.12
2018-07-25T04:32:02.697Z,100690.80
2018-07-25T04:34:29.840Z,100687.53
2018-07-25T04:36:57.037Z,100692.03
2018-07-25T04:39:24.210Z,100692.86
2018-07-25T04:41:51.358Z,100689.83
2018-07-25T04:44:18.533Z,100689.83
2018-07-25T04:46:45.695Z,100699.32
2018-07-25T04:49:12.890Z,100695.47
2018-07-25T04:51:40.043Z,100701.76
2018-07-25T04:54:07.308Z,100700.41
2018-07-25T04:56:34.464Z,100704.36
2018-07-25T04:59:01.654Z,100703.56
2018-07-25T05:01:28.792Z,100704.55
2018-07-25T05:03:56.060Z,100697.45
2018-07-25T05:06:23.992Z,100698.00
2018-07-25T05:08:51.175Z,100705.80
2018-07-25T05:11:18.346Z,100705.73
2018-07-25T05:13:46.187Z,100710.51
2018-07-25T05:16:13.368Z,100714.08
2018-07-25T05:18:40.551Z,100714.08
2018-07-25T05:21:07.679Z,100713.67
2018-07-25T05:23:34.868Z,100719.46
2018-07-25T05:26:02.055Z,100726.92
2018-07-25T05:28:29.234Z,100724.76
2018-07-25T05:30:56.354Z,100721.16
2018-07-25T05:33:23.496Z,100725.77
2018-07-25T05:35:50.715Z,100726.30
2018-07-25T05:38:18.531Z,100713.77
2018-07-25T05:40:45.732Z,100725.78
2018-07-25T05:43:12.888Z,100730.91
2018-07-25T05:45:40.056Z,100730.93
2018-07-25T05:48:07.225Z,100735.68
2018-07-25T05:50:34.406Z,100735.39
2018-07-25T05:53:01.564Z,100730.41
2018-07-25T05:55:28.711Z,100731.17
2018-07-25T05:57:55.942Z,100742.33
2018-07-25T06:00:23.270Z,100755.78
2018-07-25T06:02:50.516Z,100748.27
2018-07-25T06:05:17.658Z,100751.00
2018-07-25T06:07:44.823Z,100752.91
2018-07-25T06:10:12.129Z,100762.20
2018-07-25T06:12:39.317Z,100760.72
2018-07-25T06:15:06.490Z,100762.63
2018-07-25T06:17:33.704Z,100767.91
2018-07-25T06:20:00.861Z,100766.89
2018-07-25T06:22:28.059Z,100770.38
2018-07-25T06:24:55.229Z,100771.00
2018-07-25T06:27:22.409Z,100763.41
2018-07-25T06:29:49.541Z,100760.44
2018-07-25T06:32:16.689Z,100755.13
2018-07-25T06:34:43.872Z,100754.38
2018-07-25T06:37:11.062Z,100766.50
2018-07-25T06:39:38.211Z,100762.89
2018-07-25T06:42:06.125Z,100767.27
2018-07-25T06:44:33.302Z,100762.47
2018-07-25T06:47:00.477Z,100757.06
2018-07-25T06:49:27.664Z,100761.44
2018-07-25T06:51:54.812Z,100756.60
2018-07-25T06:54:21.991Z,100761.78
2018-07-25T06:56:49.142Z,100761.17
2018-07-25T06:59:16.320Z,100763.41
2018-07-25T07:01:43.509Z,100765.41
2018-07-25T07:04:10.680Z,100764.21
2018-07-25T07:06:37.905Z,100763.59
2018-07-25T07:09:06.826Z,100766.05
2018-07-25T07:11:33.984Z,100764.38
2018-07-25T07:14:01.176Z,100769.73
2018-07-25T07:16:28.334Z,100772.91
2018-07-25T07:18:55.542Z,100771.72
2018-07-25T07:21:22.755Z,100774.87
2018-07-25T07:23:49.978Z,100771.53
2018-07-25T07:26:17.128Z,100771.08
2018-07-25T07:28:44.325Z,100777.31
2018-07-25T07:31:11.495Z,100772.56
2018-07-25T07:33:38.680Z,100769.50
2018-07-25T07:36:05.821Z,100770.45
2018-07-25T07:38:32.992Z,100768.13
2018-07-25T07:41:00.167Z,100770.33
2018-07-25T07:43:27.375Z,100766.76
2018-07-25T07:45:54.531Z,100770.32
2018-07-25T07:48:21.731Z,100762.80
2018-07-25T07:50:48.934Z,100775.34
2018-07-25T07:53:16.115Z,100768.53
2018-07-25T07:55:43.307Z,100775.84
2018-07-25T07:58:10.495Z,100762.91
2018-07-25T08:00:37.711Z,100764.76
2018-07-25T08:03:05.187Z,100768.45
2018-07-25T08:05:33.045Z,100771.63
2018-07-25T08:08:00.239Z,100772.61
2018-07-25T08:10:27.454Z,100771.39
2018-07-25T08:12:54.623Z,100776.44
2018-07-25T08:15:21.807Z,100778.92
2018-07-25T08:17:49.008Z,100777.07
2018-07-25T08:20:16.231Z,100772.05
2018-07-25T08:22:43.404Z,100775.04
2018-07-25T08:25:10.705Z,100772.25
2018-07-25T08:27:37.890Z,100772.71
2018-07-25T08:30:05.338Z,100769.67
2018-07-25T08:32:32.518Z,100767.69
2018-07-25T08:34:59.683Z,100770.70
2018-07-25T08:37:27.386Z,100775.55
2018-07-25T08:39:54.576Z,100775.27
2018-07-25T08:42:21.746Z,100762.99
2018-07-25T08:44:48.912Z,100765.97
2018-07-25T08:47:16.083Z,100763.41
2018-07-25T08:49:43.258Z,100763.53
2018-07-25T08:52:10.484Z,100761.84
2018-07-25T08:54:37.622Z,100764.12
2018-07-25T08:57:04.790Z,100759.58
2018-07-25T08:59:31.960Z,100768.81
2018-07-25T09:01:59.680Z,100762.79
2018-07-25T09:04:27.996Z,100766.05
2018-07-25T09:06:55.430Z,100760.15
2018-07-25T09:09:22.631Z,100765.27
2018-07-25T09:11:49.838Z,100764.94
2018-07-25T09:14:17.005Z,100771.42
2018-07-25T09:16:44.340Z,100760.59
2018-07-25T09:19:11.501Z,100764.22
2018-07-25T09:21:38.724Z,100769.53
2018-07-25T09:24:05.902Z,100760.22
2018-07-25T09:26:33.070Z,100762.36
2018-07-25T09:29:00.263Z,100770.45
2018-07-25T09:31:27.467Z,100768.30
2018-07-25T09:33:54.787Z,100768.82
2018-07-25T09:36:21.944Z,100765.84
2018-07-25T09:38:49.184Z,100769.09
2018-07-25T09:41:16.367Z,100758.12
2018-07-25T09:43:43.605Z,100769.00
2018-07-25T09:46:10.800Z,100756.57
2018-07-25T09:48:38.011Z,100749.13
2018-07-25T09:51:05.248Z,100753.84
2018-07-25T09:53:32.441Z,100754.90
2018-07-25T09:55:59.631Z,100746.95
2018-07-25T09:58:26.939Z,100748.42
2018-07-25T10:00:55.143Z,100738.78
2018-07-25T10:03:22.352Z,100738.45
2018-07-25T10:05:49.577Z,100736.91
2018-07-25T10:08:17.295Z,100741.08
2018-07-25T10:10:44.783Z,100742.26
2018-07-25T10:13:11.926Z,100737.52
2018-07-25T10:15:39.157Z,100735.44
2018-07-25T10:18:06.387Z,100731.69
2018-07-25T10:20:33.975Z,100725.39
2018-07-25T10:23:01.089Z,100734.17
2018-07-25T10:25:28.389Z,100729.80
2018-07-25T10:27:55.624Z,100720.34
2018-07-25T10:30:22.926Z,100714.95
2018-07-25T10:32:50.163Z,100716.48
2018-07-25T10:35:17.365Z,100713.66
2018-07-25T10:37:44.539Z,100721.72
2018-07-25T10:40:11.741Z,100723.62
2018-07-25T10:42:39.016Z,100717.86
2018-07-25T10:45:07.377Z,100719.84
2018-07-25T10:47:34.608Z,100711.47
2018-07-25T10:50:01.839Z,100713.77
2018-07-25T10:52:29.073Z,100710.02
2018-07-25T10:54:56.288Z,100707.64
2018-07-25T10:57:23.528Z,100710.02
2018-07-25T10:59:51.261Z,100711.61
2018-07-25T11:02:18.659Z,100700.16
2018-07-25T11:04:45.713Z,100709.38
2018-07-25T11:07:12.944Z,100705.27
2018-07-25T11:09:40.182Z,100705.48
2018-07-25T11:12:07.379Z,100708.94
2018-07-25T11:14:34.565Z,100707.48
2018-07-25T11:17:01.812Z,100700.55
2018-07-25T11:19:29.032Z,100699.73
2018-07-25T11:21:56.239Z,100701.31
2018-07-25T11:24:23.446Z,100695.25
2018-07-25T11:26:50.626Z,100690.83
2018-07-25T11:29:17.821Z,100689.20
2018-07-25T11:31:45.007Z,100686.44
2018-07-25T11:34:12.205Z,100696.48
2018-07-25T11:36:39.394Z,100689.41
2018-07-25T11:39:08.302Z,100688.56
2018-07-25T11:41:35.614Z,100686.98
2018-07-25T11:44:02.811Z,100691.61
2018-07-25T11:46:30.007Z,100680.81
2018-07-25T11:48:57.176Z,100676.52
2018-07-25T11:51:24.424Z,100677.17
2018-07-25T11:53:51.593Z,100677.58
2018-07-25T11:56:18.775Z,100676.09
2018-07-25T11:58:45.998Z,100669.60
2018-07-25T12:01:13.285Z,100669.67
2018-07-25T12:03:40.376Z,100668.75
2018-07-25T12:06:07.539Z,100669.63
2018-07-25T12:08:34.751Z,100664.80
2018-07-25T12:11:01.973Z,100666.25
2018-07-25T12:13:29.287Z,100663.06
2018-07-25T12:15:56.497Z,100669.48
2018-07-25T12:18:23.710Z,100662.91
2018-07-25T12:20:50.910Z,100667.63
2018-07-25T12:23:18.169Z,100661.02
2018-07-25T12:25:45.389Z,100662.97
2018-07-25T12:28:12.617Z,100666.47
2018-07-25T12:30:39.817Z,100651.89
2018-07-25T12:33:07.133Z,100653.42
2018-07-25T12:35:34.347Z,100660.45
2018-07-25T12:38:01.554Z,100655.54
2018-07-25T12:40:28.786Z,100653.30
2018-07-25T12:42:56.075Z,100653.81
2018-07-25T12:45:23.194Z,100647.82
2018-07-25T12:47:50.393Z,100645.71
2018-07-25T12:50:17.615Z,100641.75
2018-07-25T12:52:44.849Z,100643.20
2018-07-25T12:55:12.110Z,100630.23
2018-07-25T12:57:39.336Z,100637.71
2018-07-25T13:00:07.430Z,100637.35
2018-07-25T13:02:34.640Z,100633.84
2018-07-25T13:05:01.826Z,100636.79
2018-07-25T13:07:29.026Z,100633.14
2018-07-25T13:09:56.270Z,100634.42
2018-07-25T13:12:23.501Z,100631.11
2018-07-25T13:14:50.713Z,100624.02
2018-07-25T13:17:17.988Z,100617.67
2018-07-25T13:19:45.184Z,100615.28
2018-07-25T13:22:12.380Z,100614.23
2018-07-25T13:24:39.614Z,100612.31
2018-07-25T13:27:06.909Z,100612.24
2018-07-25T13:29:34.117Z,100610.13
2018-07-25T13:32:01.427Z,100614.12
2018-07-25T13:34:28.627Z,100609.64
2018-07-25T13:36:55.909Z,100616.02
2018-07-25T13:39:23.079Z,100609.92
2018-07-25T13:41:50.308Z,100607.83
2018-07-25T13:44:17.505Z,100603.90
2018-07-25T13:46:44.834Z,100611.30
2018-07-25T13:49:12.129Z,100606.77
2018-07-25T13:51:39.331Z,100605.06
2018-07-25T13:54:06.578Z,100600.02
2018-07-25T13:56:33.779Z,100595.88
2018-07-25T13:59:00.995Z,100600.23
2018-07-25T14:01:28.177Z,100592.69
2018-07-25T14:03:55.535Z,100594.99
2018-07-25T14:06:22.739Z,100597.37
2018-07-25T14:08:49.948Z,100594.68
2018-07-25T14:11:17.185Z,100596.55
2018-07-25T14:13:44.409Z,100596.95
2018-07-25T14:16:11.603Z,100594.97
2018-07-25T14:18:38.825Z,100594.45
2018-07-25T14:21:06.061Z,100594.99
2018-07-25T14:23:33.390Z,100595.39
2018-07-25T14:26:00.546Z,100592.67
2018-07-25T14:28:27.750Z,100588.69
2018-07-25T14:30:55.593Z,100587.20
2018-07-25T14:33:22.806Z,100593.34
2018-07-25T14:35:50.010Z,100589.09
2018-07-25T14:38:17.258Z,100593.34
2018-07-25T14:40:44.518Z,100597.17
2018-07-25T14:43:11.762Z,100583.96
2018-07-25T14:45:39.022Z,100585.77
2018-07-25T14:48:06.289Z,100582.78
2018-07-25T14:50:33.551Z,100588.63
2018-07-25T14:53:00.769Z,100586.28
2018-07-25T14:55:28.097Z,100584.19
2018-07-25T14:57:55.335Z,100584.65
2018-07-25T15:00:22.535Z,100576.27
2018-07-25T15:02:49.817Z,100572.45
2018-07-25T15:05:17.044Z,100575.01
2018-07-25T15:07:44.250Z,100567.63
2018-07-25T15:10:11.479Z,100572.44
2018-07-25T15:12:42.873Z,100574.98
2018-07-25T15:15:10.993Z,100570.77
2018-07-25T15:17:38.299Z,100564.60
2018-07-25T15:20:06.640Z,100567.80
2018-07-25T15:22:33.855Z,100568.24
2018-07-25T15:25:01.050Z,100575.33
2018-07-25T15:27:28.328Z,100570.78
2018-07-25T15:29:55.511Z,100575.23
2018-07-25T15:32:22.795Z,100572.45
2018-07-25T15:34:49.997Z,100571.09
2018-07-25T15:37:17.246Z,100574.12
2018-07-25T15:39:44.461Z,100572.64
2018-07-25T15:42:11.658Z,100567.13
2018-07-25T15:44:38.911Z,100568.66
2018-07-25T15:47:06.115Z,100569.18
2018-07-25T15:49:33.334Z,100560.75
2018-07-25T15:52:00.554Z,100562.31
2018-07-25T15:54:27.843Z,100563.30
2018-07-25T15:56:55.053Z,100559.01
2018-07-25T15:59:22.241Z,100561.02
2018-07-25T16:01:49.479Z,100561.48
2018-07-25T16:04:16.696Z,100562.91
2018-07-25T16:06:43.881Z,100567.52
2018-07-25T16:09:11.716Z,100558.27
2018-07-25T16:11:39.566Z,100560.48
2018-07-25T16:14:06.894Z,100559.47
2018-07-25T16:16:34.098Z,100547.39
2018-07-25T16:19:01.314Z,100543.99
2018-07-25T16:21:28.504Z,100550.55
2018-07-25T16:23:55.793Z,100549.32
2018-07-25T16:26:23.007Z,100542.92
2018-07-25T16:28:50.197Z,100538.15
2018-07-25T16:31:17.471Z,100537.39
2018-07-25T16:33:44.628Z,100540.42
2018-07-25T16:36:11.819Z,100540.88
2018-07-25T16:38:39.052Z,100543.95
2018-07-25T16:41:06.231Z,100550.29
2018-07-25T16:43:33.501Z,100548.83
2018-07-25T16:46:00.843Z,100543.23
2018-07-25T16:48:28.101Z,100544.08
2018-07-25T16:50:55.265Z,100546.41
2018-07-25T16:53:22.488Z,100540.27
2018-07-25T16:55:49.651Z,100550.66
2018-07-25T16:58:16.897Z,100546.80
2018-07-25T17:00:44.123Z,100549.75
2018-07-25T17:03:11.300Z,100550.76
2018-07-25T17:05:38.747Z,100549.52
2018-07-25T17:08:06.011Z,100553.54
2018-07-25T17:10:33.222Z,100551.86
2018-07-25T17:13:00.445Z,100555.81
2018-07-25T17:15:27.647Z,100554.88
2018-07-25T17:17:54.865Z,100567.20
2018-07-25T17:20:22.099Z,100561.76
2018-07-25T17:22:49.363Z,100560.86
2018-07-25T17:25:16.771Z,100566.25
2018-07-25T17:27:44.015Z,100567.56
2018-07-25T17:30:11.249Z,100575.45
2018-07-25T17:32:38.515Z,100576.98
2018-07-25T17:35:06.552Z,100577.95
2018-07-25T17:37:33.780Z,100579.05
2018-07-25T17:40:00.980Z,100582.53
2018-07-25T17:42:28.178Z,100584.34
2018-07-25T17:44:55.448Z,100584.70
2018-07-25T17:47:22.690Z,100580.28
2018-07-25T17:49:49.930Z,100587.72
2018-07-25T17:52:17.178Z,100587.63
2018-07-25T17:54:44.372Z,100593.37
2018-07-25T17:57:11.596Z,100590.06
2018-07-25T17:59:38.868Z,100595.26
2018-07-25T18:02:06.080Z,100594.06
2018-07-25T18:04:33.398Z,100600.33
2018-07-25T18:07:01.450Z,100608.20
2018-07-25T18:09:28.723Z,100602.73
2018-07-25T18:11:55.960Z,100611.44
2018-07-25T18:14:23.208Z,100611.19
2018-07-25T18:16:50.456Z,100615.97
2018-07-25T18:19:17.711Z,100615.19
2018-07-25T18:21:44.920Z,100617.97
2018-07-25T18:24:12.419Z,100622.64
2018-07-25T18:26:39.747Z,100623.73
2018-07-25T18:29:06.996Z,100626.70
2018-07-25T18:31:34.643Z,100628.19
2018-07-25T18:34:01.924Z,100638.24
2018-07-25T18:36:29.344Z,100632.18
2018-07-25T18:38:56.586Z,100633.87
2018-07-25T18:41:23.775Z,100631.25
2018-07-25T18:43:51.004Z,100633.57
2018-07-25T18:46:18.572Z,100628.58
2018-07-25T18:48:45.822Z,100627.03
2018-07-25T18:51:13.006Z,100626.17
2018-07-25T18:53:40.243Z,100627.94
2018-07-25T18:56:07.721Z,100632.58
2018-07-25T18:58:35.035Z,100631.29
2018-07-25T19:01:02.222Z,100626.41
2018-07-25T19:03:29.571Z,100631.30
2018-07-25T19:05:56.782Z,100635.59
2018-07-25T19:08:23.974Z,100635.82
2018-07-25T19:10:51.293Z,100642.52
2018-07-25T19:13:24.023Z,100637.48
2018-07-25T19:15:51.248Z,100648.65
2018-07-25T19:18:18.516Z,100650.86
2018-07-25T19:20:45.654Z,100652.27
2018-07-25T19:23:12.834Z,100662.41
2018-07-25T19:25:40.028Z,100664.70
2018-07-25T19:28:07.226Z,100664.30
2018-07-25T19:30:34.477Z,100670.97
2018-07-25T19:33:01.679Z,100670.97
2018-07-25T19:35:28.933Z,100673.12
2018-07-25T19:37:56.149Z,100674.47
2018-07-25T19:40:23.367Z,100677.55
2018-07-25T19:42:50.649Z,100686.59
2018-07-25T19:45:17.811Z,100689.96
2018-07-25T19:47:44.998Z,100692.97
2018-07-25T19:50:12.230Z,100685.27
2018-07-25T19:52:39.441Z,100692.06
2018-07-25T19:55:06.667Z,100691.44
2018-07-25T19:57:33.873Z,100693.31
2018-07-25T20:00:01.054Z,100698.03
2018-07-25T20:02:28.287Z,100699.34
2018-07-25T20:04:55.503Z,100705.11
2018-07-25T20:07:22.772Z,100706.00
2018-07-25T20:09:49.981Z,100701.21
2018-07-25T20:12:17.217Z,100704.32
2018-07-25T20:14:49.980Z,100701.23
2018-07-25T20:17:17.214Z,100704.86
2018-07-25T20:19:44.907Z,100706.47
2018-07-25T20:22:12.764Z,100701.39
2018-07-25T20:24:39.978Z,100706.75
2018-07-25T20:27:07.202Z,100702.37
2018-07-25T20:29:34.467Z,100706.19
2018-07-25T20:32:01.672Z,100711.28
2018-07-25T20:34:28.898Z,100707.59
2018-07-25T20:36:56.077Z,100709.38
2018-07-25T20:39:23.344Z,100708.98
2018-07-25T20:41:50.569Z,100708.16
2018-07-25T20:44:17.789Z,100704.55
2018-07-25T20:46:45.012Z,100711.90
2018-07-25T20:49:13.442Z,100716.36
2018-07-25T20:51:40.649Z,100711.55
2018-07-25T20:54:07.846Z,100714.59
2018-07-25T20:56:35.108Z,100717.47
2018-07-25T20:59:02.333Z,100717.65
2018-07-25T21:01:29.578Z,100718.43
2018-07-25T21:03:56.817Z,100720.47
2018-07-25T21:06:24.557Z,100723.20
2018-07-25T21:08:51.874Z,100726.50
2018-07-25T21:11:19.269Z,100727.36
2018-07-25T21:13:46.474Z,100736.67
2018-07-25T21:16:13.759Z,100739.66
2018-07-25T21:18:40.889Z,100740.20
2018-07-25T21:21:08.160Z,100741.52
2018-07-25T21:23:35.380Z,100740.62
2018-07-25T21:26:02.629Z,100743.82
2018-07-25T21:28:29.801Z,100751.91
2018-07-25T21:30:57.041Z,100745.89
2018-07-25T21:33:24.295Z,100751.75
2018-07-25T21:35:51.507Z,100756.59
2018-07-25T21:38:18.887Z,100760.97
2018-07-25T21:40:46.093Z,100763.66
2018-07-25T21:43:13.309Z,100769.59
2018-07-25T21:45:40.769Z,100772.63
2018-07-25T21:48:07.983Z,100772.30
2018-07-25T21:50:35.200Z,100774.41
2018-07-25T21:53:02.428Z,100772.84
2018-07-25T21:55:29.712Z,100768.70
2018-07-25T21:57:56.921Z,100773.75
2018-07-25T22:00:24.193Z,100771.92
2018-07-25T22:02:51.452Z,100782.20
2018-07-25T22:05:18.640Z,100776.66
2018-07-25T22:07:46.411Z,100777.02
2018-07-25T22:10:13.617Z,100780.55
2018-07-25T22:12:41.121Z,100780.89
2018-07-25T22:15:09.416Z,100789.48
2018-07-25T22:17:36.848Z,100791.09
2018-07-25T22:20:05.234Z,100793.91
2018-07-25T22:22:32.397Z,100786.87
2018-07-25T22:24:59.604Z,100790.20
2018-07-25T22:27:26.757Z,100783.03
2018-07-25T22:29:53.901Z,100794.64
2018-07-25T22:32:21.076Z,100793.43
2018-07-25T22:34:48.297Z,100789.52
2018-07-25T22:37:15.631Z,100787.07
2018-07-25T22:39:43.305Z,100791.73
2018-07-25T22:42:10.620Z,100792.48
2018-07-25T22:44:37.833Z,100780.06
2018-07-25T22:47:05.045Z,100787.52
2018-07-25T22:49:32.236Z,100785.70
2018-07-25T22:51:59.436Z,100783.23
2018-07-25T22:54:26.603Z,100786.30
2018-07-25T22:56:53.885Z,100794.94
2018-07-25T22:59:21.064Z,100787.41
2018-07-25T23:01:48.254Z,100792.87
2018-07-25T23:04:15.440Z,100801.78
2018-07-25T23:06:42.663Z,100801.19
2018-07-25T23:09:10.806Z,100798.38
2018-07-25T23:11:38.316Z,100801.30
2018-07-25T23:14:05.531Z,100793.75
2018-07-25T23:16:32.719Z,100809.71
2018-07-25T23:18:59.930Z,100802.52
2018-07-25T23:21:27.608Z,100801.68
2018-07-25T23:23:54.772Z,100797.05
2018-07-25T23:26:21.984Z,100800.77
2018-07-25T23:28:49.168Z,100803.20
2018-07-25T23:31:16.576Z,100803.80
2018-07-25T23:33:43.770Z,100799.92
2018-07-25T23:36:10.970Z,100800.14
2018-07-25T23:38:38.193Z,100799.16
2018-07-25T23:41:05.447Z,100800.72
2018-07-25T23:43:32.686Z,100795.73
2018-07-25T23:46:00.476Z,100798.48
2018-07-25T23:48:27.698Z,100799.94
2018-07-25T23:50:54.995Z,100796.39
2018-07-25T23:53:22.260Z,100799.66
2018-07-25T23:55:49.487Z,100798.09
2018-07-25T23:58:16.674Z,100798.09
